Time;durP1;ratioP1;P1;durP2;ratioP2;P2;SDS_P1;SDS_P2;PMS_P1;PMS_P2;Temp;Humidity;BMP_temperature;BMP_pressure;BME280_temperature;BME280_humidity;BME280_pressure;Samples;Min_cycle;Max_cycle;Signal;HPM_P1;HPM_P2
2022/07/13 00:00:17;;;;;;;3.47;1.90;;;;;;;;;;5073095;28;20029;-76
2022/07/13 00:02:43;;;;;;;5.93;2.03;;;;;;;;;;5063485;28;20104;-76
2022/07/13 00:05:09;;;;;;;5.88;2.30;;;;;;;;;;5084869;28;20059;-75
2022/07/13 00:07:35;;;;;;;4.68;2.10;;;;;;;;;;5074865;28;20029;-76
2022/07/13 00:10:01;;;;;;;3.53;2.10;;;;;;;;;;5073301;28;20534;-77
2022/07/13 00:12:30;;;;;;;3.20;1.90;;;;;;;;;;5075408;28;20036;-77
2022/07/13 00:14:57;;;;;;;3.83;2.00;;;;;;;;;;5069915;28;20025;-75
2022/07/13 00:17:28;;;;;;;5.82;2.15;;;;;;;;;;5076862;28;20421;-76
2022/07/13 00:19:54;;;;;;;4.10;1.90;;;;;;;;;;5072276;28;20098;-76
2022/07/13 00:22:21;;;;;;;2.30;1.90;;;;;;;;;;5072517;28;20028;-76
2022/07/13 00:24:47;;;;;;;2.17;1.95;;;;;;;;;;5072911;28;20017;-75
2022/07/13 00:27:13;;;;;;;4.35;2.00;;;;;;;;;;5074416;28;20024;-76
2022/07/13 00:29:39;;;;;;;2.78;1.90;;;;;;;;;;5079488;28;20017;-75
2022/07/13 00:32:05;;;;;;;3.55;1.95;;;;;;;;;;5072698;28;20477;-76
2022/07/13 00:34:32;;;;;;;3.00;1.90;;;;;;;;;;5071173;28;20036;-74
2022/07/13 00:36:58;;;;;;;3.38;2.05;;;;;;;;;;5071572;28;20050;-76
2022/07/13 00:39:24;;;;;;;3.85;2.00;;;;;;;;;;5066050;28;20036;-76
2022/07/13 00:41:50;;;;;;;2.63;1.83;;;;;;;;;;5068095;28;20086;-76
2022/07/13 00:44:17;;;;;;;4.47;2.45;;;;;;;;;;5071249;28;20103;-75
2022/07/13 00:46:47;;;;;;;11.80;3.45;;;;;;;;;;5081504;28;20032;-76
2022/07/13 00:49:13;;;;;;;4.22;2.88;;;;;;;;;;5072571;28;20019;-77
2022/07/13 00:51:39;;;;;;;4.40;2.08;;;;;;;;;;5069991;28;20039;-75
2022/07/13 00:54:06;;;;;;;6.55;2.10;;;;;;;;;;5072364;28;20074;-76
2022/07/13 00:56:32;;;;;;;2.83;1.85;;;;;;;;;;5077577;28;20055;-77
2022/07/13 00:58:59;;;;;;;4.38;2.28;;;;;;;;;;5080417;28;20021;-76
2022/07/13 01:01:26;;;;;;;4.28;1.80;;;;;;;;;;5082309;28;20097;-75
2022/07/13 01:03:52;;;;;;;5.63;1.95;;;;;;;;;;5079344;28;20020;-76
2022/07/13 01:06:18;;;;;;;4.97;2.13;;;;;;;;;;5068826;28;20482;-75
2022/07/13 01:08:44;;;;;;;2.53;1.80;;;;;;;;;;5072583;28;20029;-76
2022/07/13 01:11:11;;;;;;;3.65;1.90;;;;;;;;;;5070695;28;20032;-76
2022/07/13 01:13:38;;;;;;;7.85;2.17;;;;;;;;;;5074285;28;20032;-74
2022/07/13 01:16:05;;;;;;;5.35;1.85;;;;;;;;;;5075010;28;20108;-76
2022/07/13 01:18:32;;;;;;;6.18;1.90;;;;;;;;;;5070368;28;20021;-76
2022/07/13 01:20:58;;;;;;;3.35;1.80;;;;;;;;;;5065167;28;20131;-76
2022/07/13 01:23:25;;;;;;;4.25;2.10;;;;;;;;;;5071052;28;20029;-75
2022/07/13 01:25:56;;;;;;;3.30;1.88;;;;;;;;;;5071313;28;20059;-76
2022/07/13 01:28:22;;;;;;;4.97;2.00;;;;;;;;;;5066853;28;20112;-76
2022/07/13 01:30:49;;;;;;;12.40;3.10;;;;;;;;;;5075746;28;20032;-74
2022/07/13 01:33:15;;;;;;;9.27;2.10;;;;;;;;;;5075852;28;20020;-77
2022/07/13 01:35:41;;;;;;;3.40;2.03;;;;;;;;;;5075631;28;20032;-76
2022/07/13 01:38:07;;;;;;;6.53;1.98;;;;;;;;;;5073680;28;20485;-76
2022/07/13 01:40:33;;;;;;;3.45;1.90;;;;;;;;;;5086484;28;20089;-76
2022/07/13 01:42:59;;;;;;;2.75;1.98;;;;;;;;;;5075861;28;20020;-76
2022/07/13 01:45:25;;;;;;;3.38;2.00;;;;;;;;;;5076089;28;20021;-75
2022/07/13 01:47:53;;;;;;;6.13;2.20;;;;;;;;;;5072021;28;20025;-76
2022/07/13 01:50:21;;;;;;;4.93;2.08;;;;;;;;;;5076195;28;20097;-75
2022/07/13 01:52:47;;;;;;;5.78;2.10;;;;;;;;;;5075623;28;20024;-75
2022/07/13 01:55:14;;;;;;;7.90;2.10;;;;;;;;;;5075749;28;20032;-75
2022/07/13 01:57:40;;;;;;;5.90;2.05;;;;;;;;;;5075212;28;20029;-76
2022/07/13 02:00:08;;;;;;;4.30;1.90;;;;;;;;;;5072653;28;20058;-76
2022/07/13 02:02:34;;;;;;;2.80;1.92;;;;;;;;;;5074216;28;20410;-75
2022/07/13 02:05:00;;;;;;;3.70;2.05;;;;;;;;;;5075499;28;20024;-76
2022/07/13 02:07:27;;;;;;;5.68;1.98;;;;;;;;;;5073850;28;20033;-76
2022/07/13 02:09:53;;;;;;;3.03;1.77;;;;;;;;;;5073531;28;20023;-75
2022/07/13 02:12:19;;;;;;;4.57;2.00;;;;;;;;;;5080776;28;20016;-76
2022/07/13 02:14:46;;;;;;;6.03;1.75;;;;;;;;;;5075450;28;20024;-76
2022/07/13 02:17:12;;;;;;;2.75;2.05;;;;;;;;;;5074394;28;20031;-76
2022/07/13 02:19:38;;;;;;;4.53;2.13;;;;;;;;;;5074589;28;20036;-75
2022/07/13 02:22:04;;;;;;;5.85;2.03;;;;;;;;;;5073514;28;20055;-75
2022/07/13 02:24:30;;;;;;;5.35;2.30;;;;;;;;;;5075190;28;20069;-76
2022/07/13 02:26:56;;;;;;;5.70;2.30;;;;;;;;;;5074310;28;20032;-75
2022/07/13 02:29:23;;;;;;;7.07;2.42;;;;;;;;;;5074911;28;20070;-75
2022/07/13 02:31:49;;;;;;;3.05;2.00;;;;;;;;;;5072183;28;20013;-76
2022/07/13 02:34:15;;;;;;;5.60;2.22;;;;;;;;;;5084611;28;20385;-75
2022/07/13 02:36:41;;;;;;;5.13;2.10;;;;;;;;;;5074699;28;20033;-75
2022/07/13 02:39:07;;;;;;;5.15;2.30;;;;;;;;;;5074491;28;20095;-75
2022/07/13 02:41:33;;;;;;;3.58;2.17;;;;;;;;;;5072696;28;20044;-74
2022/07/13 02:43:59;;;;;;;8.05;2.20;;;;;;;;;;5075866;28;20025;-75
2022/07/13 02:46:25;;;;;;;4.95;2.47;;;;;;;;;;5074153;28;20039;-75
2022/07/13 02:48:51;;;;;;;7.82;2.30;;;;;;;;;;5074944;28;20043;-75
2022/07/13 02:51:17;;;;;;;4.03;2.08;;;;;;;;;;5075596;28;20445;-74
2022/07/13 02:53:43;;;;;;;7.97;2.47;;;;;;;;;;5074836;28;20563;-75
2022/07/13 02:56:09;;;;;;;6.25;2.40;;;;;;;;;;5074751;28;20021;-75
2022/07/13 02:58:35;;;;;;;5.07;2.33;;;;;;;;;;5074367;28;20024;-75
2022/07/13 03:01:01;;;;;;;7.50;2.50;;;;;;;;;;5074236;28;20037;-74
2022/07/13 03:03:27;;;;;;;3.33;2.10;;;;;;;;;;5072468;28;20033;-76
2022/07/13 03:05:56;;;;;;;6.88;1.90;;;;;;;;;;5078183;28;20032;-75
2022/07/13 03:08:22;;;;;;;5.10;2.10;;;;;;;;;;5074430;28;20477;-75
2022/07/13 03:10:48;;;;;;;6.90;2.60;;;;;;;;;;5074513;28;20031;-74
2022/07/13 03:13:14;;;;;;;4.38;2.28;;;;;;;;;;5072879;28;20029;-75
2022/07/13 03:15:40;;;;;;;4.68;2.13;;;;;;;;;;5080478;28;20039;-75
2022/07/13 03:18:07;;;;;;;4.43;2.20;;;;;;;;;;5074445;28;20102;-75
2022/07/13 03:20:34;;;;;;;7.93;2.70;;;;;;;;;;5073851;28;20056;-74
2022/07/13 03:23:00;;;;;;;3.72;2.30;;;;;;;;;;5073401;28;20034;-75
2022/07/13 03:25:26;;;;;;;7.68;2.40;;;;;;;;;;5074305;28;20037;-75
2022/07/13 03:27:52;;;;;;;7.55;2.53;;;;;;;;;;5074195;28;20024;-75
2022/07/13 03:30:18;;;;;;;8.63;2.50;;;;;;;;;;5073856;28;20020;-75
2022/07/13 03:32:44;;;;;;;6.22;2.17;;;;;;;;;;5073950;28;20075;-75
2022/07/13 03:35:11;;;;;;;7.05;2.40;;;;;;;;;;5071981;28;20060;-75
2022/07/13 03:37:37;;;;;;;5.68;2.20;;;;;;;;;;5074658;28;20111;-76
2022/07/13 03:40:03;;;;;;;4.68;2.20;;;;;;;;;;5073711;28;20389;-76
2022/07/13 03:42:30;;;;;;;3.67;2.20;;;;;;;;;;5075515;28;20032;-76
2022/07/13 03:44:56;;;;;;;5.30;2.33;;;;;;;;;;5072147;28;20466;-74
2022/07/13 03:47:22;;;;;;;8.10;2.42;;;;;;;;;;5074604;28;20025;-76
2022/07/13 03:49:48;;;;;;;4.88;2.10;;;;;;;;;;5072847;28;20098;-76
2022/07/13 03:52:14;;;;;;;7.43;2.45;;;;;;;;;;5070745;28;20056;-75
2022/07/13 03:54:40;;;;;;;6.18;2.45;;;;;;;;;;5073321;28;20437;-76
2022/07/13 03:57:06;;;;;;;4.78;2.83;;;;;;;;;;5073078;28;20043;-75
2022/07/13 03:59:32;;;;;;;5.05;2.17;;;;;;;;;;5076501;28;20024;-75
2022/07/13 04:01:58;;;;;;;4.60;2.28;;;;;;;;;;5072216;28;20037;-74
2022/07/13 04:04:26;;;;;;;5.43;2.50;;;;;;;;;;5072009;28;20389;-75
2022/07/13 04:06:52;;;;;;;7.88;3.05;;;;;;;;;;5071306;28;20031;-74
2022/07/13 04:09:18;;;;;;;7.20;2.67;;;;;;;;;;5073198;28;20024;-75
2022/07/13 04:11:44;;;;;;;6.40;2.60;;;;;;;;;;5073235;28;20385;-74
2022/07/13 04:14:10;;;;;;;4.57;2.80;;;;;;;;;;5071146;28;20043;-75
2022/07/13 04:16:36;;;;;;;6.15;2.50;;;;;;;;;;5072773;28;20458;-76
2022/07/13 04:19:03;;;;;;;9.23;2.85;;;;;;;;;;5074058;28;20028;-77
2022/07/13 04:21:29;;;;;;;4.53;2.42;;;;;;;;;;5075654;28;20041;-76
2022/07/13 04:23:56;;;;;;;5.43;2.40;;;;;;;;;;5070383;28;20028;-75
2022/07/13 04:26:22;;;;;;;9.85;2.72;;;;;;;;;;5072007;28;20029;-75
2022/07/13 04:28:48;;;;;;;4.63;2.65;;;;;;;;;;5072798;28;20108;-76
2022/07/13 04:31:14;;;;;;;7.10;2.55;;;;;;;;;;5081982;28;20024;-76
2022/07/13 04:33:40;;;;;;;3.67;2.22;;;;;;;;;;5072466;28;20052;-76
2022/07/13 04:36:07;;;;;;;4.22;2.10;;;;;;;;;;5070950;28;20028;-76
2022/07/13 04:38:34;;;;;;;9.02;2.50;;;;;;;;;;5072595;28;20119;-76
2022/07/13 04:41:00;;;;;;;5.72;2.88;;;;;;;;;;5077572;28;20040;-77
2022/07/13 04:43:26;;;;;;;4.38;2.30;;;;;;;;;;5070582;28;20024;-75
2022/07/13 04:45:53;;;;;;;11.65;2.72;;;;;;;;;;5071454;28;20028;-75
2022/07/13 04:48:19;;;;;;;3.17;2.25;;;;;;;;;;5072831;28;20074;-76
2022/07/13 04:50:45;;;;;;;4.13;2.42;;;;;;;;;;5073774;28;20024;-76
2022/07/13 04:53:11;;;;;;;5.18;2.38;;;;;;;;;;5072328;28;20334;-76
2022/07/13 04:55:40;;;;;;;6.78;2.50;;;;;;;;;;5071887;28;20075;-75
2022/07/13 04:58:07;;;;;;;4.22;2.30;;;;;;;;;;5070833;28;20064;-76
2022/07/13 05:00:34;;;;;;;5.65;2.75;;;;;;;;;;5072141;28;20050;-76
2022/07/13 05:03:00;;;;;;;4.38;2.85;;;;;;;;;;5073452;28;20381;-76
2022/07/13 05:05:30;;;;;;;4.15;2.60;;;;;;;;;;5072817;28;20025;-76
2022/07/13 05:07:56;;;;;;;8.52;3.00;;;;;;;;;;5070743;28;20028;-76
2022/07/13 05:10:23;;;;;;;5.47;2.75;;;;;;;;;;5071414;28;20035;-75
2022/07/13 05:12:49;;;;;;;6.60;2.70;;;;;;;;;;5065944;28;20024;-77
2022/07/13 05:15:15;;;;;;;5.38;2.80;;;;;;;;;;5070933;28;20096;-76
2022/07/13 05:17:41;;;;;;;4.85;2.95;;;;;;;;;;5070577;28;20021;-78
2022/07/13 05:20:07;;;;;;;6.20;3.00;;;;;;;;;;5070660;28;20032;-77
2022/07/13 05:22:35;;;;;;;7.55;2.80;;;;;;;;;;5067319;28;20048;-78
2022/07/13 05:25:01;;;;;;;4.15;2.63;;;;;;;;;;5073796;28;20020;-78
2022/07/13 05:27:27;;;;;;;3.63;2.80;;;;;;;;;;5070681;28;20028;-77
2022/07/13 05:29:58;;;;;;;10.98;3.00;;;;;;;;;;5067655;28;20056;-69
2022/07/13 05:32:24;;;;;;;5.85;2.70;;;;;;;;;;5078835;28;20043;-72
2022/07/13 05:35:03;;;;;;;4.95;2.80;;;;;;;;;;5068508;28;20032;-71
2022/07/13 05:37:29;;;;;;;5.50;2.75;;;;;;;;;;5075591;28;20035;-72
2022/07/13 05:39:55;;;;;;;8.23;2.90;;;;;;;;;;5070518;28;20020;-70
2022/07/13 05:42:26;;;;;;;5.85;2.90;;;;;;;;;;5068510;28;20494;-74
2022/07/13 05:44:52;;;;;;;6.45;2.92;;;;;;;;;;5076838;28;20025;-73
2022/07/13 05:47:18;;;;;;;7.90;2.90;;;;;;;;;;5072957;28;20017;-74
2022/07/13 05:49:44;;;;;;;8.60;3.13;;;;;;;;;;5071843;28;20028;-71
2022/07/13 05:52:11;;;;;;;7.93;3.50;;;;;;;;;;5071454;28;20033;-74
2022/07/13 05:54:38;;;;;;;7.60;3.00;;;;;;;;;;5071648;28;20082;-73
2022/07/13 05:57:04;;;;;;;3.65;2.72;;;;;;;;;;5069141;28;20034;-77
2022/07/13 05:59:32;;;;;;;5.88;2.90;;;;;;;;;;5067709;28;20067;-75
2022/07/13 06:01:59;;;;;;;6.25;2.95;;;;;;;;;;5069831;28;20565;-77
2022/07/13 06:04:25;;;;;;;6.90;3.10;;;;;;;;;;5070262;28;20035;-81
2022/07/13 06:06:56;;;;;;;5.90;2.75;;;;;;;;;;5071001;28;20155;-75
2022/07/13 06:09:22;;;;;;;7.50;3.00;;;;;;;;;;5068746;28;20111;-70
2022/07/13 06:11:48;;;;;;;7.07;2.90;;;;;;;;;;5072103;28;20021;-69
2022/07/13 06:14:17;;;;;;;11.85;4.60;;;;;;;;;;5073063;28;20024;-68
2022/07/13 06:16:43;;;;;;;5.90;3.22;;;;;;;;;;5075030;28;20033;-71
2022/07/13 06:19:09;;;;;;;6.45;3.90;;;;;;;;;;5073442;28;20024;-70
2022/07/13 06:21:35;;;;;;;6.72;2.95;;;;;;;;;;5074732;28;20052;-69
2022/07/13 06:24:01;;;;;;;4.72;3.00;;;;;;;;;;5075163;28;20082;-68
2022/07/13 06:26:41;;;;;;;;;;;;;;;;;;;;;
2022/07/13 06:29:07;;;;;;;12.35;3.35;;;;;;;;;;5074154;28;20027;-69
2022/07/13 06:31:38;;;;;;;5.45;3.10;;;;;;;;;;5074149;28;20394;-68
2022/07/13 06:34:05;;;;;;;7.50;3.13;;;;;;;;;;5071088;28;20029;-78
2022/07/13 06:36:31;;;;;;;5.15;2.95;;;;;;;;;;5069902;28;20099;-76
2022/07/13 06:38:57;;;;;;;5.18;2.85;;;;;;;;;;5071374;28;20020;-78
2022/07/13 06:41:23;;;;;;;8.88;3.70;;;;;;;;;;5070638;28;20048;-74
2022/07/13 06:43:51;;;;;;;14.68;3.10;;;;;;;;;;5072422;28;20098;-69
2022/07/13 06:46:18;;;;;;;6.35;3.00;;;;;;;;;;5073043;28;20028;-75
2022/07/13 06:48:44;;;;;;;12.60;3.28;;;;;;;;;;5072211;28;20021;-72
2022/07/13 06:51:11;;;;;;;10.52;3.05;;;;;;;;;;5074563;28;20466;-73
2022/07/13 06:53:37;;;;;;;26.92;4.05;;;;;;;;;;5073989;28;20489;-74
2022/07/13 06:56:03;;;;;;;172.52;15.95;;;;;;;;;;5074124;28;20051;-76
2022/07/13 06:58:29;;;;;;;17.48;4.38;;;;;;;;;;5070149;28;20031;-75
2022/07/13 07:00:55;;;;;;;17.65;3.65;;;;;;;;;;5073828;28;20044;-78
2022/07/13 07:03:21;;;;;;;11.60;3.50;;;;;;;;;;5071139;28;20031;-74
2022/07/13 07:05:49;;;;;;;15.25;3.80;;;;;;;;;;5068519;28;20025;-77
2022/07/13 07:08:16;;;;;;;15.68;4.85;;;;;;;;;;5073474;28;20033;-72
2022/07/13 07:10:42;;;;;;;27.35;4.85;;;;;;;;;;5074053;28;20031;-74
2022/07/13 07:13:08;;;;;;;18.67;3.97;;;;;;;;;;5070524;28;20021;-76
2022/07/13 07:15:35;;;;;;;10.40;3.47;;;;;;;;;;5071287;28;20063;-70
2022/07/13 07:18:01;;;;;;;21.10;4.30;;;;;;;;;;5073365;28;20025;-76
2022/07/13 07:20:27;;;;;;;9.82;3.00;;;;;;;;;;5075671;28;20048;-79
2022/07/13 07:22:53;;;;;;;8.10;3.30;;;;;;;;;;5073950;28;20032;-76
2022/07/13 07:25:19;;;;;;;7.70;3.28;;;;;;;;;;5073065;28;20074;-74
2022/07/13 07:27:45;;;;;;;11.43;3.53;;;;;;;;;;5074682;28;20074;-75
2022/07/13 07:30:12;;;;;;;7.97;3.40;;;;;;;;;;5071666;28;20013;-77
2022/07/13 07:32:39;;;;;;;11.30;3.20;;;;;;;;;;5071597;28;20052;-76
2022/07/13 07:35:06;;;;;;;8.82;3.53;;;;;;;;;;5072008;28;20021;-75
2022/07/13 07:37:48;;;;;;;12.65;3.47;;;;;;;;;;5070099;28;20028;-71
2022/07/13 07:40:14;;;;;;;9.13;3.17;;;;;;;;;;5078327;28;20120;-71
2022/07/13 07:42:40;;;;;;;9.55;3.30;;;;;;;;;;5074190;28;20385;-76
2022/07/13 07:45:08;;;;;;;21.85;4.57;;;;;;;;;;5069154;28;20047;-79
2022/07/13 07:47:34;;;;;;;9.73;2.97;;;;;;;;;;5067452;28;20036;-73
2022/07/13 07:50:00;;;;;;;8.70;2.90;;;;;;;;;;5072099;28;20028;-75
2022/07/13 07:52:26;;;;;;;10.82;3.03;;;;;;;;;;5071599;28;20086;-76
2022/07/13 07:54:52;;;;;;;10.57;3.20;;;;;;;;;;5071243;28;20104;-75
2022/07/13 07:57:18;;;;;;;4.82;2.80;;;;;;;;;;5071321;28;20041;-76
2022/07/13 07:59:44;;;;;;;5.70;2.30;;;;;;;;;;5070569;28;20043;-75
2022/07/13 08:02:11;;;;;;;15.10;2.83;;;;;;;;;;5066984;28;20033;-74
2022/07/13 08:04:37;;;;;;;21.35;3.20;;;;;;;;;;5071695;28;20101;-79
2022/07/13 08:07:03;;;;;;;12.80;2.78;;;;;;;;;;5071421;28;20047;-77
2022/07/13 08:09:29;;;;;;;9.48;2.45;;;;;;;;;;5070862;28;20032;-75
2022/07/13 08:11:56;;;;;;;8.45;2.58;;;;;;;;;;5070566;28;20370;-77
2022/07/13 08:14:23;;;;;;;11.90;2.80;;;;;;;;;;5070952;28;20029;-77
2022/07/13 08:16:49;;;;;;;6.97;2.45;;;;;;;;;;5070425;28;20031;-86
2022/07/13 08:19:15;;;;;;;14.48;2.70;;;;;;;;;;5071847;28;20039;-87
2022/07/13 08:21:41;;;;;;;6.72;2.17;;;;;;;;;;5070838;28;20056;-82
2022/07/13 08:24:07;;;;;;;7.60;2.30;;;;;;;;;;5066628;28;20021;-79
2022/07/13 08:26:33;;;;;;;6.95;2.60;;;;;;;;;;5067074;28;20074;-81
2022/07/13 08:29:00;;;;;;;6.47;2.70;;;;;;;;;;5069670;28;20032;-78
2022/07/13 08:31:26;;;;;;;11.13;2.67;;;;;;;;;;5071353;28;20040;-75
2022/07/13 08:39:23;;;;;;;8.55;2.72;;;;;;;;;;5063365;28;20509;-75
2022/07/13 08:41:49;;;;;;;6.40;2.25;;;;;;;;;;5071802;28;20043;-77
2022/07/13 08:44:16;;;;;;;18.60;2.95;;;;;;;;;;5071818;28;20828;-76
2022/07/13 08:46:43;;;;;;;7.00;2.33;;;;;;;;;;5068012;28;20410;-79
2022/07/13 08:49:10;;;;;;;11.00;2.40;;;;;;;;;;5068016;28;20109;-76
2022/07/13 08:51:36;;;;;;;9.57;2.60;;;;;;;;;;5071395;28;20413;-74
2022/07/13 08:54:07;;;;;;;6.40;2.47;;;;;;;;;;5070298;28;20110;-84
2022/07/13 08:56:33;;;;;;;8.93;2.50;;;;;;;;;;5071966;28;20051;-82
2022/07/13 08:58:59;;;;;;;9.18;2.45;;;;;;;;;;5071665;28;20458;-83
2022/07/13 09:01:26;;;;;;;4.68;2.13;;;;;;;;;;5067096;28;20090;-83
2022/07/13 09:03:52;;;;;;;4.90;2.00;;;;;;;;;;5070369;28;20367;-80
2022/07/13 09:06:37;;;;;;;6.90;2.00;;;;;;;;;;5070856;28;20375;-75
2022/07/13 09:09:03;;;;;;;6.35;1.95;;;;;;;;;;5068243;28;20039;-77
2022/07/13 09:11:29;;;;;;;4.50;1.98;;;;;;;;;;5069010;28;20039;-74
2022/07/13 09:13:56;;;;;;;3.05;1.88;;;;;;;;;;5069280;28;20059;-79
2022/07/13 09:16:23;;;;;;;4.82;1.75;;;;;;;;;;5070598;28;20355;-77
2022/07/13 09:18:52;;;;;;;4.78;1.85;;;;;;;;;;5069869;28;20052;-75
2022/07/13 09:21:19;;;;;;;15.00;2.40;;;;;;;;;;5068836;28;20079;-76
2022/07/13 09:23:47;;;;;;;7.65;1.70;;;;;;;;;;5070979;28;20036;-77
2022/07/13 09:26:13;;;;;;;8.35;1.85;;;;;;;;;;5071869;28;20388;-75
2022/07/13 09:28:45;;;;;;;7.15;2.05;;;;;;;;;;5068558;28;20541;-73
2022/07/13 09:31:12;;;;;;;3.60;1.90;;;;;;;;;;5064616;28;20079;-76
2022/07/13 09:33:39;;;;;;;5.10;1.70;;;;;;;;;;5069451;28;20016;-73
2022/07/13 09:36:12;;;;;;;4.93;2.20;;;;;;;;;;5070321;28;20081;-76
2022/07/13 09:38:42;;;;;;;3.30;1.80;;;;;;;;;;5066827;28;20028;-74
2022/07/13 09:41:24;;;;;;;2.70;1.50;;;;;;;;;;5069351;28;20025;-70
2022/07/13 09:46:49;;;;;;;2.75;1.42;;;;;;;;;;5070152;28;20500;-70
2022/07/13 09:49:39;;;;;;;6.25;1.73;;;;;;;;;;5069432;28;20596;-72
2022/07/13 09:52:07;;;;;;;3.35;1.70;;;;;;;;;;5071878;28;20082;-70
2022/07/13 09:54:34;;;;;;;3.55;1.50;;;;;;;;;;5074773;28;20161;-71
2022/07/13 09:57:05;;;;;;;3.50;1.60;;;;;;;;;;5073341;28;20525;-70
2022/07/13 09:59:32;;;;;;;7.90;2.15;;;;;;;;;;5075167;28;20397;-72
2022/07/13 10:01:58;;;;;;;3.28;1.42;;;;;;;;;;5074318;28;20170;-71
2022/07/13 10:04:24;;;;;;;2.63;1.30;;;;;;;;;;5075494;28;20054;-68
2022/07/13 10:06:50;;;;;;;2.15;1.55;;;;;;;;;;5074577;28;20040;-69
2022/07/13 10:09:35;;;;;;;4.68;1.73;;;;;;;;;;5074608;28;20020;-71
2022/07/13 10:12:06;;;;;;;3.58;1.35;;;;;;;;;;5074104;28;20027;-71
2022/07/13 10:14:32;;;;;;;2.85;1.80;;;;;;;;;;5075304;28;20132;-71
2022/07/13 10:16:59;;;;;;;4.22;1.58;;;;;;;;;;5071799;28;20031;-70
2022/07/13 10:19:25;;;;;;;11.45;2.55;;;;;;;;;;5073841;28;20418;-71
2022/07/13 10:21:54;;;;;;;9.98;2.60;;;;;;;;;;5074956;28;20569;-68
2022/07/13 10:24:20;;;;;;;2.63;1.67;;;;;;;;;;5075176;28;20466;-71
2022/07/13 10:26:49;;;;;;;6.03;2.08;;;;;;;;;;5074457;28;20028;-68
2022/07/13 10:29:15;;;;;;;19.45;4.15;;;;;;;;;;5074866;28;20393;-68
2022/07/13 10:31:43;;;;;;;10.05;2.10;;;;;;;;;;5075708;28;20024;-69
2022/07/13 10:34:10;;;;;;;3.80;1.77;;;;;;;;;;5071459;28;20026;-70
2022/07/13 10:36:51;;;;;;;3.53;1.85;;;;;;;;;;5072498;28;20031;-71
2022/07/13 10:39:24;;;;;;;1.92;1.30;;;;;;;;;;5075821;28;20031;-68
2022/07/13 10:41:57;;;;;;;2.70;1.70;;;;;;;;;;5074531;28;20477;-72
2022/07/13 10:44:40;;;;;;;9.57;1.63;;;;;;;;;;5073093;28;20035;-68
2022/07/13 10:47:06;;;;;;;4.47;1.80;;;;;;;;;;5074384;28;20032;-72
2022/07/13 10:49:32;;;;;;;2.70;1.77;;;;;;;;;;5072732;28;20418;-73
2022/07/13 10:52:17;;;;;;;4.97;1.60;;;;;;;;;;5078782;28;20025;-68
2022/07/13 10:57:35;;;;;;;4.30;1.63;;;;;;;;;;5063644;28;20531;-70
2022/07/13 11:00:03;;;;;;;3.97;1.75;;;;;;;;;;5074292;28;20024;-71
2022/07/13 11:02:49;;;;;;;2.60;1.50;;;;;;;;;;5074571;28;20048;-68
2022/07/13 11:05:17;;;;;;;4.88;1.70;;;;;;;;;;5073302;28;20036;-71
2022/07/13 11:07:44;;;;;;;3.60;1.70;;;;;;;;;;5074302;28;20021;-68
2022/07/13 11:10:18;;;;;;;3.63;1.65;;;;;;;;;;5076241;28;20017;-72
2022/07/13 11:13:12;;;;;;;4.55;1.60;;;;;;;;;;5073059;28;20071;-69
2022/07/13 11:15:57;;;;;;;4.63;1.90;;;;;;;;;;5072839;28;20064;-68
2022/07/13 11:18:23;;;;;;;4.07;1.65;;;;;;;;;;5059971;28;20024;-69
2022/07/13 11:21:02;;;;;;;9.82;1.90;;;;;;;;;;5074058;28;20048;-70
2022/07/13 11:26:36;;;;;;;4.35;1.85;;;;;;;;;;5071585;28;20044;-72
2022/07/13 11:29:06;;;;;;;4.07;1.50;;;;;;;;;;5073610;28;20101;-72
2022/07/13 11:31:32;;;;;;;3.75;1.75;;;;;;;;;;5074115;28;20021;-69
2022/07/13 11:33:58;;;;;;;6.18;2.22;;;;;;;;;;5076398;28;20112;-72
2022/07/13 11:36:24;;;;;;;4.07;1.58;;;;;;;;;;5073588;28;20044;-71
2022/07/13 11:38:51;;;;;;;3.85;1.90;;;;;;;;;;5073710;28;20470;-69
2022/07/13 11:41:23;;;;;;;2.83;1.50;;;;;;;;;;5073562;28;20093;-69
2022/07/13 11:43:51;;;;;;;4.43;1.70;;;;;;;;;;5073852;28;20008;-74
2022/07/13 11:46:28;;;;;;;6.25;1.80;;;;;;;;;;5078839;28;20461;-68
2022/07/13 11:49:04;;;;;;;4.30;1.98;;;;;;;;;;5070061;28;20452;-68
2022/07/13 11:51:31;;;;;;;7.28;1.90;;;;;;;;;;5072797;28;20028;-72
2022/07/13 11:54:06;;;;;;;2.92;2.00;;;;;;;;;;5072905;28;20028;-74
2022/07/13 11:56:32;;;;;;;6.55;1.70;;;;;;;;;;5072313;28;20024;-70
2022/07/13 11:58:58;;;;;;;2.78;2.00;;;;;;;;;;5076791;28;20028;-75
2022/07/13 12:01:24;;;;;;;6.32;2.00;;;;;;;;;;5073256;28;20067;-72
2022/07/13 12:03:50;;;;;;;2.55;1.63;;;;;;;;;;5072197;28;20028;-68
2022/07/13 12:06:17;;;;;;;6.35;1.70;;;;;;;;;;5068506;28;20025;-74
2022/07/13 12:08:44;;;;;;;3.50;1.65;;;;;;;;;;5071181;28;20495;-68
2022/07/13 12:11:14;;;;;;;6.47;2.00;;;;;;;;;;5073477;28;20035;-71
2022/07/13 12:13:41;;;;;;;3.35;1.70;;;;;;;;;;5073224;28;20112;-74
2022/07/13 12:16:10;;;;;;;4.85;1.90;;;;;;;;;;5070856;28;20389;-75
2022/07/13 12:18:55;;;;;;;8.63;2.15;;;;;;;;;;5070722;28;20074;-74
2022/07/13 12:21:23;;;;;;;5.85;1.77;;;;;;;;;;5070568;28;20044;-70
2022/07/13 12:23:50;;;;;;;6.85;2.20;;;;;;;;;;5071065;28;20029;-74
2022/07/13 12:26:16;;;;;;;2.08;1.60;;;;;;;;;;5071252;28;20020;-75
2022/07/13 12:28:42;;;;;;;1.75;1.55;;;;;;;;;;5069538;28;20031;-73
2022/07/13 12:31:09;;;;;;;4.63;1.80;;;;;;;;;;5069485;28;20043;-75
2022/07/13 12:33:42;;;;;;;4.05;1.70;;;;;;;;;;5072753;28;20040;-75
2022/07/13 12:36:09;;;;;;;2.63;1.70;;;;;;;;;;5070285;28;20470;-76
2022/07/13 12:38:36;;;;;;;5.53;1.80;;;;;;;;;;5070165;28;20028;-78
2022/07/13 12:41:03;;;;;;;5.95;1.88;;;;;;;;;;5070588;28;20078;-71
2022/07/13 12:43:30;;;;;;;2.88;1.60;;;;;;;;;;5072240;28;20111;-76
2022/07/13 12:46:00;;;;;;;1.60;1.30;;;;;;;;;;5072232;28;20028;-75
2022/07/13 12:48:27;;;;;;;2.97;1.55;;;;;;;;;;5069351;28;20385;-76
2022/07/13 12:50:56;;;;;;;3.00;1.70;;;;;;;;;;5068918;28;20024;-75
2022/07/13 12:53:22;;;;;;;4.07;1.63;;;;;;;;;;5069188;28;20543;-74
2022/07/13 12:55:52;;;;;;;6.35;1.60;;;;;;;;;;5070010;28;20078;-78
2022/07/13 12:58:19;;;;;;;6.95;2.20;;;;;;;;;;5069043;28;20107;-79
2022/07/13 13:00:45;;;;;;;7.78;2.00;;;;;;;;;;5069367;28;20029;-79
2022/07/13 13:03:11;;;;;;;12.55;2.53;;;;;;;;;;5066834;28;20020;-78
2022/07/13 13:05:37;;;;;;;51.97;4.95;;;;;;;;;;5072359;28;20039;-81
2022/07/13 13:08:03;;;;;;;60.10;5.57;;;;;;;;;;5072301;28;20029;-78
2022/07/13 13:10:31;;;;;;;7.82;1.98;;;;;;;;;;5070962;28;20025;-77
2022/07/13 13:12:57;;;;;;;3.72;1.67;;;;;;;;;;5069182;28;20024;-77
2022/07/13 13:15:23;;;;;;;5.47;1.50;;;;;;;;;;5070134;28;20024;-73
2022/07/13 13:17:50;;;;;;;3.00;1.60;;;;;;;;;;5069915;28;20071;-74
2022/07/13 13:20:16;;;;;;;7.95;1.67;;;;;;;;;;5065465;28;20028;-74
2022/07/13 13:22:42;;;;;;;5.57;1.83;;;;;;;;;;5073911;28;20383;-79
2022/07/13 13:25:10;;;;;;;7.07;1.70;;;;;;;;;;5068872;28;20025;-77
2022/07/13 13:27:36;;;;;;;8.50;2.50;;;;;;;;;;5071884;28;20050;-74
2022/07/13 13:32:46;;;;;;;3.92;1.80;;;;;;;;;;5071919;28;20036;-75
2022/07/13 13:35:13;;;;;;;7.05;2.30;;;;;;;;;;5071025;28;20028;-73
2022/07/13 13:37:39;;;;;;;14.25;2.30;;;;;;;;;;5073549;28;20478;-79
2022/07/13 13:40:05;;;;;;;3.92;1.75;;;;;;;;;;5070655;28;20119;-74
2022/07/13 13:42:32;;;;;;;2.88;1.60;;;;;;;;;;5056264;28;20056;-75
2022/07/13 13:44:58;;;;;;;6.43;1.55;;;;;;;;;;5073223;28;20143;-73
2022/07/13 13:47:24;;;;;;;6.28;1.70;;;;;;;;;;5064560;28;20036;-75
2022/07/13 13:49:50;;;;;;;1.75;1.35;;;;;;;;;;5070329;28;20032;-74
2022/07/13 13:52:19;;;;;;;4.30;1.52;;;;;;;;;;5069659;28;20054;-72
2022/07/13 13:54:45;;;;;;;3.53;1.52;;;;;;;;;;5071086;28;20464;-76
2022/07/13 13:57:11;;;;;;;3.40;1.27;;;;;;;;;;5071223;28;20017;-73
2022/07/13 13:59:37;;;;;;;2.22;1.63;;;;;;;;;;5070848;28;20032;-72
2022/07/13 14:02:03;;;;;;;2.03;1.67;;;;;;;;;;5070483;28;20498;-73
2022/07/13 14:04:30;;;;;;;4.72;1.58;;;;;;;;;;5068194;28;20025;-73
2022/07/13 14:06:56;;;;;;;3.88;1.60;;;;;;;;;;5069216;28;20024;-72
2022/07/13 14:09:23;;;;;;;3.45;1.60;;;;;;;;;;5067981;28;20024;-73
2022/07/13 14:11:49;;;;;;;5.70;1.80;;;;;;;;;;5068701;28;20181;-72
2022/07/13 14:14:17;;;;;;;2.55;1.55;;;;;;;;;;5069871;28;20036;-71
2022/07/13 14:16:43;;;;;;;3.53;1.67;;;;;;;;;;5070310;28;20136;-72
2022/07/13 14:19:09;;;;;;;8.25;1.83;;;;;;;;;;5069706;28;20020;-77
2022/07/13 14:21:35;;;;;;;2.13;1.38;;;;;;;;;;5067496;28;20052;-80
2022/07/13 14:24:01;;;;;;;4.07;1.52;;;;;;;;;;5068431;28;20157;-78
2022/07/13 14:26:27;;;;;;;3.72;1.50;;;;;;;;;;5082086;28;20032;-78
2022/07/13 14:28:53;;;;;;;7.63;2.03;;;;;;;;;;5064415;28;21350;-75
2022/07/13 14:31:19;;;;;;;3.97;1.60;;;;;;;;;;5068140;28;20029;-76
2022/07/13 14:33:45;;;;;;;4.22;1.90;;;;;;;;;;5065924;28;20028;-77
2022/07/13 14:36:11;;;;;;;1.42;1.27;;;;;;;;;;5071978;28;20059;-75
2022/07/13 14:38:38;;;;;;;2.67;1.80;;;;;;;;;;5072521;28;20062;-75
2022/07/13 14:41:04;;;;;;;2.67;1.83;;;;;;;;;;5071526;28;20052;-76
2022/07/13 14:43:31;;;;;;;3.50;1.73;;;;;;;;;;5068893;28;20077;-75
2022/07/13 14:45:57;;;;;;;1.70;1.42;;;;;;;;;;5072036;28;20021;-75
2022/07/13 14:48:32;;;;;;;4.45;1.50;;;;;;;;;;5071832;28;20043;-70
2022/07/13 14:50:59;;;;;;;3.42;1.33;;;;;;;;;;5071697;28;20032;-72
2022/07/13 14:53:25;;;;;;;4.13;1.83;;;;;;;;;;5069814;28;20040;-69
2022/07/13 14:55:52;;;;;;;4.75;1.40;;;;;;;;;;5074284;28;20046;-71
2022/07/13 14:58:20;;;;;;;4.75;1.60;;;;;;;;;;5073174;28;20020;-73
2022/07/13 15:00:46;;;;;;;3.55;1.55;;;;;;;;;;5071775;28;20060;-85